Time;durP1;ratioP1;P1;durP2;ratioP2;P2;SDS_P1;SDS_P2;PMS_P1;PMS_P2;Temp;Humidity;BMP_temperature;BMP_pressure;BME280_temperature;BME280_humidity;BME280_pressure;Samples;Min_cycle;Max_cycle;Signal;HPM_P1;HPM_P2
2022/02/14 00:01:02;;;;;;;40.08;15.55;;;;;;;;;;4844148;29;20082;-85
2022/02/14 00:03:28;;;;;;;35.00;14.93;;;;;;;;;;4843015;29;20041;-85
2022/02/14 00:05:54;;;;;;;36.25;15.48;;;;;;;;;;4848141;29;20026;-82
2022/02/14 00:08:20;;;;;;;35.08;14.77;;;;;;;;;;4848579;29;20090;-84
2022/02/14 00:10:46;;;;;;;32.92;14.43;;;;;;;;;;4843834;29;20049;-84
2022/02/14 00:13:12;;;;;;;36.80;14.63;;;;;;;;;;4842448;29;20030;-84
2022/02/14 00:15:41;;;;;;;40.10;15.98;;;;;;;;;;4842516;29;20033;-85
2022/02/14 00:18:07;;;;;;;39.85;14.52;;;;;;;;;;4842128;29;20399;-84
2022/02/14 00:20:33;;;;;;;38.90;14.93;;;;;;;;;;4842120;29;20433;-82
2022/02/14 00:22:59;;;;;;;48.67;16.70;;;;;;;;;;4842199;29;20026;-84
2022/02/14 00:25:25;;;;;;;32.85;13.65;;;;;;;;;;4842249;29;20126;-85
2022/02/14 00:27:51;;;;;;;30.50;13.05;;;;;;;;;;4843298;29;20030;-85
2022/02/14 00:30:18;;;;;;;30.30;14.68;;;;;;;;;;4841988;29;20034;-89
2022/02/14 00:32:44;;;;;;;31.10;13.18;;;;;;;;;;4842138;29;20369;-82
2022/02/14 00:35:13;;;;;;;39.60;14.88;;;;;;;;;;4841901;29;20030;-84
2022/02/14 00:37:39;;;;;;;30.63;13.55;;;;;;;;;;4842114;29;20129;-84
2022/02/14 00:40:05;;;;;;;34.33;13.52;;;;;;;;;;4841712;29;20053;-84
2022/02/14 00:42:31;;;;;;;38.90;15.43;;;;;;;;;;4841750;29;20034;-88
2022/02/14 00:44:57;;;;;;;34.35;14.73;;;;;;;;;;4841873;29;20061;-85
2022/02/14 00:47:23;;;;;;;33.70;14.00;;;;;;;;;;4843163;29;20095;-90
2022/02/14 00:49:50;;;;;;;35.75;14.98;;;;;;;;;;4841810;29;20078;-83
2022/02/14 00:52:16;;;;;;;36.65;15.27;;;;;;;;;;4841849;29;20426;-86
2022/02/14 00:54:43;;;;;;;36.58;13.88;;;;;;;;;;4842064;29;20034;-85
2022/02/14 00:57:09;;;;;;;29.10;12.88;;;;;;;;;;4843120;29;20082;-86
2022/02/14 00:59:35;;;;;;;32.92;14.10;;;;;;;;;;4841810;29;20457;-85
2022/02/14 01:02:03;;;;;;;33.05;14.82;;;;;;;;;;4841624;29;20030;-84
2022/02/14 01:04:29;;;;;;;32.35;14.05;;;;;;;;;;4841827;29;20116;-85
2022/02/14 01:06:55;;;;;;;38.55;14.25;;;;;;;;;;4841885;29;20117;-90
2022/02/14 01:09:21;;;;;;;35.03;14.65;;;;;;;;;;4841406;29;20412;-84
2022/02/14 01:11:48;;;;;;;32.08;14.43;;;;;;;;;;4841708;29;20065;-83
2022/02/14 01:14:14;;;;;;;31.88;13.57;;;;;;;;;;4842591;29;20179;-83
2022/02/14 01:16:41;;;;;;;33.40;15.35;;;;;;;;;;4845411;29;20572;-83
2022/02/14 01:19:07;;;;;;;31.77;13.82;;;;;;;;;;4845344;29;20387;-84
2022/02/14 01:21:33;;;;;;;34.00;14.20;;;;;;;;;;4845233;29;20030;-83
2022/02/14 01:23:59;;;;;;;32.25;12.77;;;;;;;;;;4845327;29;20026;-82
2022/02/14 01:26:25;;;;;;;33.88;13.48;;;;;;;;;;4845308;29;20061;-85
2022/02/14 01:28:51;;;;;;;32.42;13.60;;;;;;;;;;4845024;29;20069;-82
2022/02/14 01:31:17;;;;;;;39.15;15.85;;;;;;;;;;4845234;29;20041;-85
2022/02/14 01:33:44;;;;;;;34.50;13.95;;;;;;;;;;4846950;29;20086;-84
2022/02/14 01:36:10;;;;;;;39.05;14.25;;;;;;;;;;4846500;29;20030;-83
2022/02/14 01:38:36;;;;;;;39.53;15.55;;;;;;;;;;4845238;29;20030;-85
2022/02/14 01:41:02;;;;;;;38.42;15.15;;;;;;;;;;4844946;29;20046;-85
2022/02/14 01:43:28;;;;;;;38.40;15.35;;;;;;;;;;4845025;29;20053;-84
2022/02/14 01:45:54;;;;;;;35.35;14.73;;;;;;;;;;4845267;29;20045;-85
2022/02/14 01:48:21;;;;;;;37.05;15.02;;;;;;;;;;4845110;29;20537;-84
2022/02/14 01:50:47;;;;;;;35.10;14.35;;;;;;;;;;4845314;29;20046;-86
2022/02/14 01:53:15;;;;;;;28.70;13.23;;;;;;;;;;4851542;29;20093;-83
2022/02/14 01:55:41;;;;;;;39.20;12.77;;;;;;;;;;4851993;29;20511;-86
2022/02/14 01:58:08;;;;;;;29.30;12.85;;;;;;;;;;4845525;29;20094;-85
2022/02/14 02:00:34;;;;;;;33.17;13.48;;;;;;;;;;4846431;29;20042;-85
2022/02/14 02:03:00;;;;;;;30.02;11.98;;;;;;;;;;4844774;29;20033;-85
2022/02/14 02:05:26;;;;;;;31.55;13.20;;;;;;;;;;4844671;29;20037;-85
2022/02/14 02:07:54;;;;;;;33.05;13.27;;;;;;;;;;4846083;29;20090;-85
2022/02/14 02:10:20;;;;;;;32.60;13.75;;;;;;;;;;4844636;29;20088;-85
2022/02/14 02:12:54;;;;;;;39.85;14.75;;;;;;;;;;4844436;29;20127;-85
2022/02/14 02:15:20;;;;;;;42.20;17.35;;;;;;;;;;4844557;29;20034;-91
2022/02/14 02:17:47;;;;;;;57.38;19.55;;;;;;;;;;4844527;29;20030;-84
2022/02/14 02:20:14;;;;;;;53.80;20.83;;;;;;;;;;4845603;29;20045;-85
2022/02/14 02:22:44;;;;;;;57.58;22.00;;;;;;;;;;4844323;29;20026;-87
2022/02/14 02:25:11;;;;;;;58.15;22.73;;;;;;;;;;4844317;29;20564;-86
2022/02/14 02:27:39;;;;;;;49.90;19.77;;;;;;;;;;4844264;29;20022;-84
2022/02/14 02:30:06;;;;;;;40.53;13.77;;;;;;;;;;4844968;29;20055;-86
2022/02/14 02:32:33;;;;;;;38.40;14.70;;;;;;;;;;4847245;29;20034;-86
2022/02/14 02:35:01;;;;;;;31.23;12.20;;;;;;;;;;4844419;29;20125;-85
2022/02/14 02:37:27;;;;;;;29.73;11.63;;;;;;;;;;4843869;29;20463;-85
2022/02/14 02:39:54;;;;;;;27.42;12.38;;;;;;;;;;4843838;29;20041;-84
2022/02/14 02:42:22;;;;;;;24.42;10.35;;;;;;;;;;4843932;29;20038;-84
2022/02/14 02:44:48;;;;;;;30.38;12.10;;;;;;;;;;4843983;29;20388;-84
2022/02/14 02:47:15;;;;;;;25.02;11.30;;;;;;;;;;4843806;29;20034;-84
2022/02/14 02:49:42;;;;;;;23.15;10.13;;;;;;;;;;4843716;29;20038;-87
2022/02/14 02:52:09;;;;;;;28.13;11.45;;;;;;;;;;4845566;29;20037;-84
2022/02/14 02:54:36;;;;;;;27.98;11.32;;;;;;;;;;4843849;29;20030;-87
2022/02/14 02:57:03;;;;;;;30.60;12.02;;;;;;;;;;4843799;29;20037;-85
2022/02/14 02:59:33;;;;;;;27.23;11.43;;;;;;;;;;4845354;29;20529;-86
2022/02/14 03:01:59;;;;;;;26.58;10.95;;;;;;;;;;4843815;29;20082;-92
2022/02/14 03:04:25;;;;;;;32.78;11.48;;;;;;;;;;4843796;29;20049;-85
2022/02/14 03:06:51;;;;;;;29.85;12.18;;;;;;;;;;4843778;29;20045;-87
2022/02/14 03:09:17;;;;;;;30.83;12.85;;;;;;;;;;4843340;29;20046;-87
2022/02/14 03:11:45;;;;;;;30.60;12.35;;;;;;;;;;4843548;29;20449;-86
2022/02/14 03:14:11;;;;;;;36.35;12.60;;;;;;;;;;4843594;29;20381;-85
2022/02/14 03:16:38;;;;;;;25.15;10.25;;;;;;;;;;4843919;29;20026;-85
2022/02/14 03:19:04;;;;;;;28.85;11.38;;;;;;;;;;4843433;29;20029;-91
2022/02/14 03:21:30;;;;;;;30.83;10.82;;;;;;;;;;4843529;29;20048;-93
2022/02/14 03:23:57;;;;;;;25.92;10.25;;;;;;;;;;4843416;29;20171;-89
2022/02/14 03:26:23;;;;;;;24.90;10.18;;;;;;;;;;4843898;29;20034;-85
2022/02/14 03:28:50;;;;;;;29.95;11.10;;;;;;;;;;4843364;29;20022;-85
2022/02/14 03:31:17;;;;;;;28.35;10.75;;;;;;;;;;4843190;29;20030;-84
2022/02/14 03:33:43;;;;;;;26.92;11.00;;;;;;;;;;4844450;29;20036;-85
2022/02/14 03:36:10;;;;;;;29.85;10.88;;;;;;;;;;4843437;29;20033;-86
2022/02/14 03:38:40;;;;;;;29.38;11.50;;;;;;;;;;4842888;29;20069;-84
2022/02/14 03:41:06;;;;;;;29.17;10.82;;;;;;;;;;4856237;29;20069;-86
2022/02/14 03:43:32;;;;;;;21.77;10.27;;;;;;;;;;4843981;29;20090;-85
2022/02/14 03:45:58;;;;;;;27.60;11.20;;;;;;;;;;4842846;29;20037;-85
2022/02/14 03:48:25;;;;;;;29.55;12.43;;;;;;;;;;4842855;29;20480;-86
2022/02/14 03:50:54;;;;;;;25.75;11.10;;;;;;;;;;4844068;29;20026;-86
2022/02/14 03:53:21;;;;;;;30.33;11.30;;;;;;;;;;4842739;29;20065;-85
2022/02/14 03:55:47;;;;;;;26.00;10.68;;;;;;;;;;4842955;29;20503;-89
2022/02/14 03:58:14;;;;;;;23.00;9.85;;;;;;;;;;4842745;29;20034;-86
2022/02/14 04:00:41;;;;;;;25.92;10.48;;;;;;;;;;4842627;29;20042;-86
2022/02/14 04:03:07;;;;;;;25.67;10.35;;;;;;;;;;4842760;29;20026;-85
2022/02/14 04:05:33;;;;;;;26.08;11.15;;;;;;;;;;4842687;29;20439;-84
2022/02/14 04:08:00;;;;;;;31.40;10.88;;;;;;;;;;4842774;29;20464;-84
2022/02/14 04:10:27;;;;;;;27.80;10.82;;;;;;;;;;4842573;29;20499;-86
2022/02/14 04:12:53;;;;;;;22.60;10.63;;;;;;;;;;4842528;29;20116;-85
2022/02/14 04:15:19;;;;;;;22.10;10.18;;;;;;;;;;4842372;29;20033;-84
2022/02/14 04:17:45;;;;;;;24.35;9.82;;;;;;;;;;4843730;29;20113;-85
2022/02/14 04:20:12;;;;;;;24.63;10.77;;;;;;;;;;4842343;29;20558;-86
2022/02/14 04:22:40;;;;;;;25.13;10.75;;;;;;;;;;4842253;29;20030;-85
2022/02/14 04:25:10;;;;;;;34.35;11.95;;;;;;;;;;4842382;29;20034;-84
2022/02/14 04:27:37;;;;;;;30.02;10.48;;;;;;;;;;4843594;29;20079;-84
2022/02/14 04:30:04;;;;;;;30.10;11.63;;;;;;;;;;4842352;29;20059;-85
2022/02/14 04:32:30;;;;;;;29.52;11.43;;;;;;;;;;4842335;29;20030;-86
2022/02/14 04:34:56;;;;;;;23.95;10.75;;;;;;;;;;4843301;29;20113;-92
2022/02/14 04:37:22;;;;;;;25.67;10.73;;;;;;;;;;4842408;29;20090;-85
2022/02/14 04:39:48;;;;;;;22.15;10.05;;;;;;;;;;4842361;29;20067;-85
2022/02/14 04:42:14;;;;;;;21.15;10.10;;;;;;;;;;4842192;29;20392;-85
2022/02/14 04:44:41;;;;;;;26.50;10.88;;;;;;;;;;4842219;29;20030;-86
2022/02/14 04:47:07;;;;;;;25.95;10.98;;;;;;;;;;4843339;29;20026;-85
2022/02/14 04:49:33;;;;;;;26.40;10.50;;;;;;;;;;4841412;29;20032;-86
2022/02/14 04:51:59;;;;;;;21.80;10.13;;;;;;;;;;4842423;29;20436;-86
2022/02/14 04:54:25;;;;;;;33.42;12.50;;;;;;;;;;4842192;29;20138;-85
2022/02/14 04:56:51;;;;;;;30.38;12.32;;;;;;;;;;4846417;29;20038;-86
2022/02/14 04:59:18;;;;;;;34.90;13.02;;;;;;;;;;4843285;29;20066;-87
2022/02/14 05:01:44;;;;;;;38.92;16.25;;;;;;;;;;4841748;29;20365;-86
2022/02/14 05:04:10;;;;;;;45.60;17.45;;;;;;;;;;4841740;29;20026;-84
2022/02/14 05:06:37;;;;;;;50.22;18.08;;;;;;;;;;4841575;29;20034;-85
2022/02/14 05:09:03;;;;;;;59.95;21.52;;;;;;;;;;4843154;29;20050;-86
2022/02/14 05:11:29;;;;;;;42.08;15.13;;;;;;;;;;4841748;29;20034;-84
2022/02/14 05:13:55;;;;;;;48.28;17.10;;;;;;;;;;4841780;29;20057;-86
2022/02/14 05:16:23;;;;;;;39.13;15.95;;;;;;;;;;4842043;29;20048;-84
2022/02/14 05:18:50;;;;;;;42.58;15.32;;;;;;;;;;4841734;29;20034;-86
2022/02/14 05:21:16;;;;;;;35.75;13.60;;;;;;;;;;4842759;29;20063;-83
2022/02/14 05:23:42;;;;;;;32.78;13.10;;;;;;;;;;4841857;29;20030;-90
2022/02/14 05:26:08;;;;;;;33.17;12.27;;;;;;;;;;4851702;29;20030;-84
2022/02/14 05:28:34;;;;;;;40.78;14.63;;;;;;;;;;4850387;29;20026;-85
2022/02/14 05:31:00;;;;;;;36.08;12.90;;;;;;;;;;4843287;29;20391;-86
2022/02/14 05:33:26;;;;;;;43.33;14.77;;;;;;;;;;4841474;29;20034;-86
2022/02/14 05:35:53;;;;;;;37.72;15.60;;;;;;;;;;4841410;29;20030;-86
2022/02/14 05:38:19;;;;;;;37.08;15.38;;;;;;;;;;4841582;29;20388;-86
2022/02/14 05:40:45;;;;;;;39.55;15.07;;;;;;;;;;4842618;29;20046;-86
2022/02/14 05:43:11;;;;;;;37.67;15.38;;;;;;;;;;4841305;29;20034;-84
2022/02/14 05:45:37;;;;;;;36.60;14.13;;;;;;;;;;4841170;29;20033;-80
2022/02/14 05:48:03;;;;;;;35.13;13.50;;;;;;;;;;4840473;29;20038;-81
2022/02/14 05:50:29;;;;;;;32.83;13.68;;;;;;;;;;4841076;29;20090;-79
2022/02/14 05:52:55;;;;;;;26.33;11.85;;;;;;;;;;4842492;29;20109;-82
2022/02/14 05:55:21;;;;;;;24.50;10.60;;;;;;;;;;4840919;29;20049;-82
2022/02/14 05:57:48;;;;;;;36.38;11.90;;;;;;;;;;4840989;29;20062;-81
2022/02/14 06:00:14;;;;;;;29.02;11.43;;;;;;;;;;4841664;29;20042;-82
2022/02/14 06:02:40;;;;;;;26.45;11.57;;;;;;;;;;4844377;29;20061;-80
2022/02/14 06:05:06;;;;;;;26.25;10.85;;;;;;;;;;4844187;29;20454;-81
2022/02/14 06:07:32;;;;;;;25.15;10.93;;;;;;;;;;4844197;29;20036;-82
2022/02/14 06:09:59;;;;;;;26.73;11.52;;;;;;;;;;4844207;29;20095;-83
2022/02/14 06:12:25;;;;;;;28.48;11.15;;;;;;;;;;4845569;29;20029;-81
2022/02/14 06:14:51;;;;;;;29.02;11.68;;;;;;;;;;4844295;29;20038;-83
2022/02/14 06:17:17;;;;;;;30.90;12.38;;;;;;;;;;4844160;29;20118;-83
2022/02/14 06:19:44;;;;;;;29.38;12.55;;;;;;;;;;4843995;29;20037;-84
2022/02/14 06:22:10;;;;;;;29.13;10.73;;;;;;;;;;4844210;29;20036;-82
2022/02/14 06:24:36;;;;;;;26.88;11.35;;;;;;;;;;4845293;29;20033;-83
2022/02/14 06:27:02;;;;;;;28.20;11.43;;;;;;;;;;4844127;29;20033;-83
2022/02/14 06:29:28;;;;;;;27.00;11.13;;;;;;;;;;4844277;29;20030;-81
2022/02/14 06:31:55;;;;;;;25.10;11.52;;;;;;;;;;4844232;29;20033;-82
2022/02/14 06:34:21;;;;;;;33.35;12.05;;;;;;;;;;4844259;29;20042;-81
2022/02/14 06:36:47;;;;;;;31.92;12.82;;;;;;;;;;4843555;29;20026;-85
2022/02/14 06:39:13;;;;;;;39.10;14.10;;;;;;;;;;4843697;29;20117;-83
2022/02/14 06:41:39;;;;;;;27.85;13.13;;;;;;;;;;4829269;29;20035;-81
2022/02/14 06:44:05;;;;;;;32.42;11.52;;;;;;;;;;4816634;29;20447;-80
2022/02/14 06:46:31;;;;;;;26.98;12.20;;;;;;;;;;4808735;29;20039;-80
2022/02/14 06:48:58;;;;;;;31.92;12.73;;;;;;;;;;4825409;29;20380;-81
2022/02/14 06:51:24;;;;;;;30.52;12.73;;;;;;;;;;4825587;29;20472;-80
2022/02/14 06:53:51;;;;;;;33.95;13.77;;;;;;;;;;4826619;29;20065;-81
2022/02/14 06:56:18;;;;;;;30.23;13.32;;;;;;;;;;4825203;29;20114;-81
2022/02/14 06:58:44;;;;;;;30.38;14.45;;;;;;;;;;4825333;29;20079;-81
2022/02/14 07:01:10;;;;;;;33.63;15.75;;;;;;;;;;4825186;29;20407;-81
2022/02/14 07:03:37;;;;;;;33.13;15.80;;;;;;;;;;4825249;29;20533;-80
2022/02/14 07:06:04;;;;;;;25.98;12.68;;;;;;;;;;4825268;29;20062;-81
2022/02/14 07:08:31;;;;;;;31.52;13.93;;;;;;;;;;4825096;29;20110;-81
2022/02/14 07:10:57;;;;;;;30.63;15.20;;;;;;;;;;4827120;29;20035;-82
2022/02/14 07:13:25;;;;;;;32.67;15.68;;;;;;;;;;4824440;29;20668;-81
2022/02/14 07:15:51;;;;;;;28.40;13.32;;;;;;;;;;4825391;29;20038;-81
2022/02/14 07:18:17;;;;;;;26.92;13.13;;;;;;;;;;4825333;29;20719;-81
2022/02/14 07:20:43;;;;;;;28.92;12.38;;;;;;;;;;4825159;29;20042;-82
2022/02/14 07:23:10;;;;;;;26.38;12.73;;;;;;;;;;4825720;29;20030;-81
2022/02/14 07:25:36;;;;;;;22.98;12.15;;;;;;;;;;4825400;29;20063;-80
2022/02/14 07:28:02;;;;;;;26.63;12.32;;;;;;;;;;4824980;29;20445;-81
2022/02/14 07:30:28;;;;;;;25.58;13.13;;;;;;;;;;4826404;29;20454;-80
2022/02/14 07:32:55;;;;;;;26.63;13.57;;;;;;;;;;4824958;29;20027;-80
2022/02/14 07:35:21;;;;;;;27.00;13.00;;;;;;;;;;4824980;29;20142;-81
2022/02/14 07:37:47;;;;;;;27.95;13.05;;;;;;;;;;4824741;29;20022;-81
2022/02/14 07:40:14;;;;;;;26.33;11.68;;;;;;;;;;4825936;29;20049;-81
2022/02/14 07:42:40;;;;;;;25.02;12.07;;;;;;;;;;4825781;29;20030;-82
2022/02/14 07:45:07;;;;;;;26.30;13.23;;;;;;;;;;4826428;29;20034;-80
2022/02/14 07:47:33;;;;;;;26.85;11.85;;;;;;;;;;4824763;29;20033;-81
2022/02/14 07:49:59;;;;;;;24.98;12.48;;;;;;;;;;4824835;29;20446;-80
2022/02/14 07:52:25;;;;;;;25.98;12.75;;;;;;;;;;4825802;29;20031;-81
2022/02/14 07:54:52;;;;;;;22.63;11.02;;;;;;;;;;4824611;29;20057;-80
2022/02/14 07:57:19;;;;;;;24.40;11.70;;;;;;;;;;4824372;29;20034;-82
2022/02/14 07:59:45;;;;;;;25.05;11.18;;;;;;;;;;4823659;29;20067;-81
2022/02/14 08:02:11;;;;;;;21.73;10.75;;;;;;;;;;4823718;29;20393;-80
2022/02/14 08:04:37;;;;;;;22.58;9.88;;;;;;;;;;4823911;29;20026;-81
2022/02/14 08:07:06;;;;;;;21.77;10.10;;;;;;;;;;4825447;29;20541;-81
2022/02/14 08:09:33;;;;;;;19.13;9.40;;;;;;;;;;4825597;29;20058;-80
2022/02/14 08:12:00;;;;;;;23.05;10.10;;;;;;;;;;4824376;29;20469;-81
2022/02/14 08:14:26;;;;;;;19.65;8.57;;;;;;;;;;4824367;29;20041;-80
2022/02/14 08:16:52;;;;;;;19.52;9.65;;;;;;;;;;4825558;29;20110;-81
2022/02/14 08:19:18;;;;;;;16.73;7.30;;;;;;;;;;4824158;29;20027;-80
2022/02/14 08:21:44;;;;;;;22.30;9.43;;;;;;;;;;4824440;29;20083;-81
2022/02/14 08:24:10;;;;;;;20.58;9.52;;;;;;;;;;4825168;29;20468;-80
2022/02/14 08:26:38;;;;;;;18.75;9.13;;;;;;;;;;4823656;29;20453;-80
2022/02/14 08:29:04;;;;;;;16.98;6.13;;;;;;;;;;4824247;29;20038;-81
2022/02/14 08:31:31;;;;;;;13.38;5.85;;;;;;;;;;4825264;29;20036;-81
2022/02/14 08:33:57;;;;;;;12.77;5.32;;;;;;;;;;4824055;29;20125;-81
2022/02/14 08:36:27;;;;;;;12.90;4.22;;;;;;;;;;4825263;29;20030;-80
2022/02/14 08:38:53;;;;;;;9.95;4.93;;;;;;;;;;4825438;29;20038;-80
2022/02/14 08:41:20;;;;;;;22.98;8.85;;;;;;;;;;4823983;29;20042;-80
2022/02/14 08:43:48;;;;;;;15.48;6.60;;;;;;;;;;4829709;29;20385;-80
2022/02/14 08:46:15;;;;;;;13.45;5.68;;;;;;;;;;4823281;29;20042;-82
2022/02/14 08:48:41;;;;;;;21.27;10.20;;;;;;;;;;4824650;29;20034;-83
2022/02/14 08:51:08;;;;;;;18.58;8.05;;;;;;;;;;4823293;29;20034;-83
2022/02/14 08:53:37;;;;;;;17.73;8.45;;;;;;;;;;4823086;29;20030;-82
2022/02/14 08:56:07;;;;;;;8.13;4.57;;;;;;;;;;4823011;29;20030;-81
2022/02/14 08:58:33;;;;;;;19.48;8.60;;;;;;;;;;4823718;29;20088;-82
2022/02/14 09:01:00;;;;;;;14.15;5.90;;;;;;;;;;4823467;29;20047;-82
2022/02/14 09:03:27;;;;;;;18.98;7.80;;;;;;;;;;4823884;29;20038;-82
2022/02/14 09:05:53;;;;;;;10.68;4.13;;;;;;;;;;4823682;29;20129;-83
2022/02/14 09:08:20;;;;;;;7.32;4.03;;;;;;;;;;4823706;29;20037;-81
2022/02/14 09:10:47;;;;;;;17.20;6.22;;;;;;;;;;4823466;29;20054;-80
2022/02/14 09:13:13;;;;;;;8.63;4.43;;;;;;;;;;4823710;29;20058;-82
2022/02/14 09:15:40;;;;;;;10.68;4.80;;;;;;;;;;4823710;29;20065;-81
2022/02/14 09:18:06;;;;;;;9.07;4.80;;;;;;;;;;4825804;29;20042;-81
2022/02/14 09:20:33;;;;;;;8.93;4.65;;;;;;;;;;4823466;29;20046;-82
2022/02/14 09:23:00;;;;;;;10.20;4.75;;;;;;;;;;4823638;29;20177;-82
2022/02/14 09:25:27;;;;;;;10.00;4.55;;;;;;;;;;4823603;29;20066;-83
2022/02/14 09:27:54;;;;;;;23.73;10.10;;;;;;;;;;4823648;29;20026;-81
2022/02/14 09:30:20;;;;;;;14.88;6.00;;;;;;;;;;4823441;29;20035;-81
2022/02/14 09:32:46;;;;;;;15.32;6.25;;;;;;;;;;4823294;29;20473;-80
2022/02/14 09:35:25;;;;;;;8.38;3.65;;;;;;;;;;4821876;29;20033;-81
2022/02/14 09:37:52;;;;;;;19.85;9.57;;;;;;;;;;4823247;29;20030;-81
2022/02/14 09:40:18;;;;;;;12.75;5.22;;;;;;;;;;4826590;29;20038;-81
2022/02/14 09:42:44;;;;;;;14.40;5.78;;;;;;;;;;4827728;29;20069;-81
2022/02/14 09:45:11;;;;;;;14.75;6.53;;;;;;;;;;4827871;29;20495;-80
2022/02/14 09:47:37;;;;;;;11.50;4.55;;;;;;;;;;4826643;29;20099;-81
2022/02/14 09:50:04;;;;;;;15.65;6.60;;;;;;;;;;4828273;29;20061;-81
2022/02/14 09:52:30;;;;;;;11.25;5.05;;;;;;;;;;4845310;29;20037;-82
2022/02/14 09:54:58;;;;;;;7.55;3.03;;;;;;;;;;4833122;29;20030;-80
2022/02/14 09:57:24;;;;;;;14.38;6.28;;;;;;;;;;4827451;29;20072;-81
2022/02/14 09:59:50;;;;;;;17.58;7.50;;;;;;;;;;4826035;29;20034;-81
2022/02/14 10:02:26;;;;;;;17.77;4.75;;;;;;;;;;4826278;29;20039;-82
2022/02/14 10:05:00;;;;;;;10.25;3.78;;;;;;;;;;4826122;29;20027;-80
2022/02/14 10:07:37;;;;;;;10.75;5.28;;;;;;;;;;4810730;29;20084;-80
2022/02/14 10:10:17;;;;;;;21.67;4.97;;;;;;;;;;4822843;29;20539;-82
2022/02/14 10:12:48;;;;;;;11.77;5.70;;;;;;;;;;4823016;29;20042;-80
2022/02/14 10:15:15;;;;;;;13.65;6.00;;;;;;;;;;4822985;29;20031;-81
2022/02/14 10:17:43;;;;;;;18.38;8.05;;;;;;;;;;4822822;29;20435;-82
2022/02/14 10:20:09;;;;;;;13.57;6.55;;;;;;;;;;4822596;29;20497;-81
2022/02/14 10:22:54;;;;;;;5.80;2.58;;;;;;;;;;4823009;29;20035;-81
2022/02/14 10:25:27;;;;;;;20.48;8.00;;;;;;;;;;4809179;29;20119;-81
2022/02/14 10:27:54;;;;;;;17.98;6.47;;;;;;;;;;4822803;29;20489;-81
2022/02/14 10:30:20;;;;;;;8.40;3.65;;;;;;;;;;4812215;29;20030;-80
2022/02/14 10:32:50;;;;;;;22.70;6.57;;;;;;;;;;4827052;29;20026;-81
2022/02/14 10:35:16;;;;;;;15.55;7.38;;;;;;;;;;4827072;29;20034;-81
2022/02/14 10:37:43;;;;;;;12.43;5.63;;;;;;;;;;4825575;29;20030;-81
2022/02/14 10:40:11;;;;;;;8.23;3.67;;;;;;;;;;4826955;29;20042;-81
2022/02/14 10:42:38;;;;;;;16.85;4.97;;;;;;;;;;4826935;29;20035;-81
2022/02/14 10:45:08;;;;;;;16.55;5.82;;;;;;;;;;4825673;29;20553;-81
2022/02/14 10:47:36;;;;;;;11.85;5.55;;;;;;;;;;4825664;29;20034;-81
2022/02/14 10:50:04;;;;;;;16.42;6.90;;;;;;;;;;4826560;29;20480;-80
2022/02/14 10:52:35;;;;;;;16.45;6.43;;;;;;;;;;4826902;29;20063;-81
2022/02/14 10:55:02;;;;;;;8.50;3.33;;;;;;;;;;4825476;29;20037;-81
2022/02/14 10:57:35;;;;;;;12.82;6.57;;;;;;;;;;4825542;29;20035;-81
2022/02/14 11:00:08;;;;;;;11.63;5.28;;;;;;;;;;4825334;29;20034;-81
2022/02/14 11:02:34;;;;;;;11.75;5.30;;;;;;;;;;4825279;29;20034;-81
2022/02/14 11:05:01;;;;;;;11.90;4.97;;;;;;;;;;4825253;29;20058;-82
2022/02/14 11:07:28;;;;;;;7.40;3.47;;;;;;;;;;4825264;29;20095;-80
2022/02/14 11:09:56;;;;;;;10.27;4.95;;;;;;;;;;4825246;29;20063;-81
2022/02/14 11:12:23;;;;;;;14.93;5.63;;;;;;;;;;4825264;29;20484;-81
2022/02/14 11:14:54;;;;;;;10.73;4.30;;;;;;;;;;4825158;29;20034;-81
2022/02/14 11:17:22;;;;;;;8.27;4.55;;;;;;;;;;4825250;29;20038;-81
2022/02/14 11:19:50;;;;;;;12.23;5.20;;;;;;;;;;4825237;29;20070;-81
2022/02/14 11:22:16;;;;;;;11.10;5.03;;;;;;;;;;4825238;29;20026;-81
2022/02/14 11:24:44;;;;;;;7.72;3.42;;;;;;;;;;4825089;29;20035;-81
2022/02/14 11:27:15;;;;;;;9.85;5.18;;;;;;;;;;4826513;29;20034;-81
2022/02/14 11:29:50;;;;;;;10.50;5.00;;;;;;;;;;4825006;29;20183;-81
2022/02/14 11:32:24;;;;;;;12.70;4.53;;;;;;;;;;4824849;29;20119;-81
2022/02/14 11:34:51;;;;;;;16.08;6.32;;;;;;;;;;4826165;29;20042;-80
2022/02/14 11:37:17;;;;;;;14.65;6.55;;;;;;;;;;4824762;29;20030;-81
2022/02/14 11:39:43;;;;;;;34.72;15.38;;;;;;;;;;4824210;29;20171;-81
2022/02/14 11:42:09;;;;;;;34.60;13.48;;;;;;;;;;4823963;29;20038;-80
2022/02/14 11:44:35;;;;;;;22.38;7.75;;;;;;;;;;4824774;29;20056;-81
2022/02/14 11:47:03;;;;;;;18.50;6.57;;;;;;;;;;4824397;29;20066;-79
2022/02/14 11:49:38;;;;;;;348.33;123.72;;;;;;;;;;4825135;29;20118;-79
2022/02/14 11:52:06;;;;;;;76.40;31.40;;;;;;;;;;4825900;29;20520;-80
2022/02/14 11:54:36;;;;;;;18.38;8.45;;;;;;;;;;4824676;29;20034;-81
2022/02/14 11:57:11;;;;;;;115.47;45.92;;;;;;;;;;4824651;29;20098;-80
2022/02/14 11:59:38;;;;;;;14.60;7.13;;;;;;;;;;4823979;29;20125;-81
2022/02/14 12:02:05;;;;;;;48.90;22.83;;;;;;;;;;4826026;29;20373;-81
2022/02/14 12:04:44;;;;;;;12.85;5.80;;;;;;;;;;4824539;29;20103;-81
2022/02/14 12:07:26;;;;;;;15.35;7.00;;;;;;;;;;4824609;29;20129;-82
2022/02/14 12:09:58;;;;;;;13.32;5.43;;;;;;;;;;4825542;29;20069;-81
2022/02/14 12:12:39;;;;;;;15.80;7.40;;;;;;;;;;4824802;29;20409;-81
2022/02/14 12:20:38;;;;;;;7.80;3.45;;;;;;;;;;4825899;29;20050;-81
2022/02/14 12:23:04;;;;;;;5.13;2.78;;;;;;;;;;4829309;29;20105;-80
2022/02/14 12:25:31;;;;;;;5.88;2.75;;;;;;;;;;4829116;29;20026;-81
2022/02/14 12:27:58;;;;;;;7.18;3.17;;;;;;;;;;4824446;29;20031;-80
2022/02/14 12:30:26;;;;;;;7.00;3.38;;;;;;;;;;4819503;29;20046;-81
2022/02/14 12:32:58;;;;;;;7.93;3.38;;;;;;;;;;4819801;29;20046;-81
2022/02/14 12:35:31;;;;;;;5.45;1.92;;;;;;;;;;4823974;29;20042;-81
2022/02/14 12:37:58;;;;;;;6.43;1.95;;;;;;;;;;4825156;29;20087;-81
2022/02/14 12:40:24;;;;;;;4.93;2.47;;;;;;;;;;4825279;29;20133;-81
2022/02/14 12:42:51;;;;;;;4.95;1.40;;;;;;;;;;4824114;29;20022;-81
2022/02/14 12:45:18;;;;;;;9.85;3.85;;;;;;;;;;4825412;29;20022;-80
2022/02/14 12:47:44;;;;;;;11.77;5.05;;;;;;;;;;4825975;29;20022;-82
2022/02/14 12:50:14;;;;;;;7.63;3.47;;;;;;;;;;4824946;29;20030;-81
2022/02/14 12:52:43;;;;;;;7.35;3.38;;;;;;;;;;4823728;29;20555;-81
2022/02/14 12:55:12;;;;;;;9.32;4.28;;;;;;;;;;4823662;29;20465;-81
2022/02/14 12:57:43;;;;;;;9.98;3.83;;;;;;;;;;4825036;29;20037;-81
2022/02/14 13:00:18;;;;;;;47.80;14.70;;;;;;;;;;4823901;29;20031;-80
2022/02/14 13:02:55;;;;;;;10.85;5.00;;;;;;;;;;4825437;29;20037;-81
2022/02/14 13:05:22;;;;;;;8.90;3.90;;;;;;;;;;4823826;29;20488;-80
2022/02/14 13:07:48;;;;;;;12.02;5.28;;;;;;;;;;4823563;29;20037;-81
2022/02/14 13:10:14;;;;;;;5.85;2.72;;;;;;;;;;4823185;29;20054;-81
2022/02/14 13:12:41;;;;;;;7.70;4.10;;;;;;;;;;4823367;29;20033;-81
2022/02/14 13:15:08;;;;;;;8.70;3.80;;;;;;;;;;4823344;29;20038;-81
2022/02/14 13:17:35;;;;;;;7.45;3.55;;;;;;;;;;4823337;29;20027;-81
2022/02/14 13:20:02;;;;;;;12.00;4.03;;;;;;;;;;4825030;29;20507;-81
2022/02/14 13:22:37;;;;;;;9.32;4.88;;;;;;;;;;4823477;29;20034;-81
2022/02/14 13:25:17;;;;;;;8.75;3.88;;;;;;;;;;4823925;29;20087;-80
2022/02/14 13:27:44;;;;;;;14.20;4.15;;;;;;;;;;4823426;29;20026;-82
2022/02/14 13:30:11;;;;;;;10.98;4.32;;;;;;;;;;4824746;29;20031;-81
2022/02/14 13:32:41;;;;;;;9.82;4.45;;;;;;;;;;4823212;29;20034;-84
2022/02/14 13:35:09;;;;;;;8.73;4.18;;;;;;;;;;4824858;29;20083;-81
2022/02/14 13:37:38;;;;;;;11.02;4.22;;;;;;;;;;4830572;29;20030;-81
2022/02/14 13:40:21;;;;;;;11.38;5.13;;;;;;;;;;4831649;29;20117;-81
2022/02/14 13:42:47;;;;;;;8.30;4.03;;;;;;;;;;4832249;29;20056;-81
2022/02/14 13:45:14;;;;;;;10.80;4.50;;;;;;;;;;4833781;29;20041;-80
2022/02/14 13:47:40;;;;;;;7.63;3.55;;;;;;;;;;4830923;29;20058;-81
2022/02/14 13:50:25;;;;;;;9.98;4.88;;;;;;;;;;4834648;29;20031;-80
2022/02/14 13:52:52;;;;;;;9.63;4.85;;;;;;;;;;4840707;29;20034;-80
2022/02/14 13:55:22;;;;;;;8.50;4.60;;;;;;;;;;4841098;29;20022;-80
2022/02/14 13:57:48;;;;;;;11.20;4.85;;;;;;;;;;4841277;29;20639;-80
2022/02/14 14:00:35;;;;;;;10.32;4.53;;;;;;;;;;4841000;29;20030;-80
2022/02/14 14:03:02;;;;;;;10.07;5.05;;;;;;;;;;4841212;29;20034;-81
2022/02/14 14:05:36;;;;;;;9.60;4.72;;;;;;;;;;4841047;29;20038;-80
2022/02/14 14:08:02;;;;;;;10.48;4.45;;;;;;;;;;4841133;29;20042;-81
2022/02/14 14:10:45;;;;;;;11.30;4.80;;;;;;;;;;4841121;29;20457;-80
2022/02/14 14:13:12;;;;;;;7.80;3.03;;;;;;;;;;4841163;29;20026;-82
2022/02/14 14:15:38;;;;;;;9.40;3.78;;;;;;;;;;4842640;29;20026;-81
2022/02/14 14:18:08;;;;;;;8.02;3.33;;;;;;;;;;4841399;29;20034;-82
2022/02/14 14:20:35;;;;;;;7.15;3.28;;;;;;;;;;4840929;29;20070;-80
2022/02/14 14:23:01;;;;;;;6.85;3.25;;;;;;;;;;4844180;29;20082;-79
2022/02/14 14:25:30;;;;;;;9.18;4.45;;;;;;;;;;4831477;29;20125;-81
2022/02/14 14:27:57;;;;;;;10.02;4.13;;;;;;;;;;4825892;29;20113;-81
2022/02/14 14:30:23;;;;;;;7.40;3.60;;;;;;;;;;4825995;29;20030;-81